sensor_id;sensor_type;location;lat;lon;timestamp;pressure;altitude;pressure_sealevel;temperature;humidity
59289;BME280;45056;47.602;9.886;2023-02-11T00:01:27;94668.41;;;-0.68;56.24
59289;BME280;45056;47.602;9.886;2023-02-11T00:03:57;94666.84;;;-0.69;56.28
59289;BME280;45056;47.602;9.886;2023-02-11T00:06:28;94664.81;;;-0.73;56.07
59289;BME280;45056;47.602;9.886;2023-02-11T00:08:57;94672.72;;;-0.76;56.07
59289;BME280;45056;47.602;9.886;2023-02-11T00:11:26;94664.22;;;-0.78;56.18
59289;BME280;45056;47.602;9.886;2023-02-11T00:13:59;94658.78;;;-0.82;56.33
59289;BME280;45056;47.602;9.886;2023-02-11T00:16:29;94655.66;;;-0.84;56.59
59289;BME280;45056;47.602;9.886;2023-02-11T00:18:58;94650.63;;;-0.85;56.36
59289;BME280;45056;47.602;9.886;2023-02-11T00:21:28;94655.50;;;-0.88;56.63
59289;BME280;45056;47.602;9.886;2023-02-11T00:23:57;94647.38;;;-0.91;56.25
59289;BME280;45056;47.602;9.886;2023-02-11T00:26:29;94653.03;;;-0.93;56.63
59289;BME280;45056;47.602;9.886;2023-02-11T00:29:02;94654.13;;;-0.94;56.48
59289;BME280;45056;47.602;9.886;2023-02-11T00:31:32;94656.00;;;-0.94;56.20
59289;BME280;45056;47.602;9.886;2023-02-11T00:34:00;94656.81;;;-0.94;56.23
59289;BME280;45056;47.602;9.886;2023-02-11T00:36:29;94662.47;;;-0.95;56.45
59289;BME280;45056;47.602;9.886;2023-02-11T00:38:58;94661.25;;;-0.98;56.42
59289;BME280;45056;47.602;9.886;2023-02-11T00:41:26;94664.22;;;-0.99;56.41
59289;BME280;45056;47.602;9.886;2023-02-11T00:43:54;94665.97;;;-1.04;56.26
59289;BME280;45056;47.602;9.886;2023-02-11T00:46:24;94667.88;;;-1.04;56.16
59289;BME280;45056;47.602;9.886;2023-02-11T00:48:52;94662.84;;;-1.06;56.24
59289;BME280;45056;47.602;9.886;2023-02-11T00:51:23;94662.09;;;-1.06;56.51
59289;BME280;45056;47.602;9.886;2023-02-11T00:53:51;94657.84;;;-1.07;56.62
59289;BME280;45056;47.602;9.886;2023-02-11T00:56:20;94652.50;;;-1.07;55.96
59289;BME280;45056;47.602;9.886;2023-02-11T00:58:48;94639.31;;;-1.12;56.41
59289;BME280;45056;47.602;9.886;2023-02-11T01:01:16;94639.97;;;-1.16;56.99
59289;BME280;45056;47.602;9.886;2023-02-11T01:03:46;94634.63;;;-1.16;56.51
59289;BME280;45056;47.602;9.886;2023-02-11T01:06:14;94632.41;;;-1.13;56.91
59289;BME280;45056;47.602;9.886;2023-02-11T01:08:43;94633.97;;;-1.12;56.53
59289;BME280;45056;47.602;9.886;2023-02-11T01:11:14;94630.84;;;-1.14;56.21
59289;BME280;45056;47.602;9.886;2023-02-11T01:13:44;94629.16;;;-1.19;56.52
59289;BME280;45056;47.602;9.886;2023-02-11T01:16:13;94627.91;;;-1.22;56.41
59289;BME280;45056;47.602;9.886;2023-02-11T01:18:42;94622.44;;;-1.25;56.40
59289;BME280;45056;47.602;9.886;2023-02-11T01:21:12;94624.34;;;-1.26;56.70
59289;BME280;45056;47.602;9.886;2023-02-11T01:23:40;94625.44;;;-1.27;56.66
59289;BME280;45056;47.602;9.886;2023-02-11T01:26:08;94615.06;;;-1.28;56.51
59289;BME280;45056;47.602;9.886;2023-02-11T01:28:36;94623.53;;;-1.26;57.05
59289;BME280;45056;47.602;9.886;2023-02-11T01:31:05;94632.03;;;-1.24;57.00
59289;BME280;45056;47.602;9.886;2023-02-11T01:33:33;94619.75;;;-1.25;56.90
59289;BME280;45056;47.602;9.886;2023-02-11T01:36:02;94623.88;;;-1.28;56.29
59289;BME280;45056;47.602;9.886;2023-02-11T01:38:33;94619.63;;;-1.29;56.76
59289;BME280;45056;47.602;9.886;2023-02-11T01:41:04;94614.28;;;-1.29;56.73
59289;BME280;45056;47.602;9.886;2023-02-11T01:43:37;94608.16;;;-1.29;56.73
59289;BME280;45056;47.602;9.886;2023-02-11T01:46:30;94605.50;;;-1.29;56.14
59289;BME280;45056;47.602;9.886;2023-02-11T01:49:05;94598.72;;;-1.27;56.59
59289;BME280;45056;47.602;9.886;2023-02-11T01:51:41;94601.53;;;-1.23;56.07
59289;BME280;45056;47.602;9.886;2023-02-11T01:54:20;94592.44;;;-1.22;56.10
59289;BME280;45056;47.602;9.886;2023-02-11T01:57:11;94587.84;;;-1.22;55.81
59289;BME280;45056;47.602;9.886;2023-02-11T01:59:59;94585.53;;;-1.23;56.27
59289;BME280;45056;47.602;9.886;2023-02-11T02:02:38;94589.75;;;-1.22;56.01
59289;BME280;45056;47.602;9.886;2023-02-11T02:05:21;94596.81;;;-1.26;56.00
59289;BME280;45056;47.602;9.886;2023-02-11T02:07:59;94589.91;;;-1.27;56.13
59289;BME280;45056;47.602;9.886;2023-02-11T02:10:36;94590.25;;;-1.29;55.87
59289;BME280;45056;47.602;9.886;2023-02-11T02:13:08;94589.47;;;-1.29;55.98
59289;BME280;45056;47.602;9.886;2023-02-11T02:15:39;94583.66;;;-1.32;55.95
59289;BME280;45056;47.602;9.886;2023-02-11T02:18:31;94584.78;;;-1.33;56.29
59289;BME280;45056;47.602;9.886;2023-02-11T02:21:41;94586.34;;;-1.32;55.87
59289;BME280;45056;47.602;9.886;2023-02-11T02:24:58;94573.13;;;-1.28;55.67
59289;BME280;45056;47.602;9.886;2023-02-11T02:27:52;94579.69;;;-1.25;56.05
59289;BME280;45056;47.602;9.886;2023-02-11T02:30:59;94580.03;;;-1.27;55.43
59289;BME280;45056;47.602;9.886;2023-02-11T02:33:53;94561.19;;;-1.31;55.71
59289;BME280;45056;47.602;9.886;2023-02-11T02:36:33;94561.84;;;-1.34;55.56
59289;BME280;45056;47.602;9.886;2023-02-11T02:39:13;94562.97;;;-1.35;55.69
59289;BME280;45056;47.602;9.886;2023-02-11T02:41:48;94570.19;;;-1.35;55.67
59289;BME280;45056;47.602;9.886;2023-02-11T02:44:19;94570.97;;;-1.35;55.56
59289;BME280;45056;47.602;9.886;2023-02-11T02:46:48;94548.38;;;-1.37;55.87
59289;BME280;45056;47.602;9.886;2023-02-11T02:49:17;94547.94;;;-1.39;56.09
59289;BME280;45056;47.602;9.886;2023-02-11T02:52:01;94553.59;;;-1.41;55.98
59289;BME280;45056;47.602;9.886;2023-02-11T02:54:52;94555.00;;;-1.43;55.79
59289;BME280;45056;47.602;9.886;2023-02-11T02:57:48;94565.22;;;-1.46;55.97
59289;BME280;45056;47.602;9.886;2023-02-11T03:00:42;94561.63;;;-1.50;55.58
59289;BME280;45056;47.602;9.886;2023-02-11T03:03:31;94561.53;;;-1.53;55.85
59289;BME280;45056;47.602;9.886;2023-02-11T03:06:14;94558.84;;;-1.53;55.52
59289;BME280;45056;47.602;9.886;2023-02-11T03:08:56;94563.09;;;-1.52;55.97
59289;BME280;45056;47.602;9.886;2023-02-11T03:11:29;94561.84;;;-1.55;55.64
59289;BME280;45056;47.602;9.886;2023-02-11T03:14:02;94561.69;;;-1.58;55.89
59289;BME280;45056;47.602;9.886;2023-02-11T03:16:34;94552.13;;;-1.60;55.55
59289;BME280;45056;47.602;9.886;2023-02-11T03:19:10;94547.44;;;-1.63;55.76
59289;BME280;45056;47.602;9.886;2023-02-11T03:21:46;94552.31;;;-1.65;55.89
59289;BME280;45056;47.602;9.886;2023-02-11T03:24:22;94551.09;;;-1.67;56.19
59289;BME280;45056;47.602;9.886;2023-02-11T03:26:58;94542.28;;;-1.68;56.27
59289;BME280;45056;47.602;9.886;2023-02-11T03:29:35;94532.72;;;-1.69;56.22
59289;BME280;45056;47.602;9.886;2023-02-11T03:32:13;94524.25;;;-1.71;56.08
59289;BME280;45056;47.602;9.886;2023-02-11T03:34:52;94527.13;;;-1.76;56.07
59289;BME280;45056;47.602;9.886;2023-02-11T03:37:30;94526.66;;;-1.78;56.07
59289;BME280;45056;47.602;9.886;2023-02-11T03:40:09;94528.53;;;-1.79;56.25
59289;BME280;45056;47.602;9.886;2023-02-11T03:42:43;94529.19;;;-1.82;55.84
59289;BME280;45056;47.602;9.886;2023-02-11T03:45:21;94531.88;;;-1.91;55.96
59289;BME280;45056;47.602;9.886;2023-02-11T03:47:56;94527.84;;;-1.97;56.31
59289;BME280;45056;47.602;9.886;2023-02-11T03:50:31;94527.06;;;-1.97;56.51
59289;BME280;45056;47.602;9.886;2023-02-11T03:53:04;94517.97;;;-1.96;56.56
59289;BME280;45056;47.602;9.886;2023-02-11T03:55:39;94524.88;;;-1.95;56.67
59289;BME280;45056;47.602;9.886;2023-02-11T03:58:09;94517.31;;;-1.93;56.93
59289;BME280;45056;47.602;9.886;2023-02-11T04:00:39;94520.44;;;-1.91;56.70
59289;BME280;45056;47.602;9.886;2023-02-11T04:03:10;94528.13;;;-1.90;57.09
59289;BME280;45056;47.602;9.886;2023-02-11T04:05:39;94526.56;;;-1.91;56.62
59289;BME280;45056;47.602;9.886;2023-02-11T04:08:09;94534.25;;;-1.89;56.46
59289;BME280;45056;47.602;9.886;2023-02-11T04:10:37;94533.44;;;-1.90;56.11
59289;BME280;45056;47.602;9.886;2023-02-11T04:13:05;94528.13;;;-1.90;56.38
59289;BME280;45056;47.602;9.886;2023-02-11T04:15:33;94526.44;;;-1.94;56.24
59289;BME280;45056;47.602;9.886;2023-02-11T04:18:01;94524.25;;;-2.01;56.36
59289;BME280;45056;47.602;9.886;2023-02-11T04:20:29;94521.44;;;-2.05;56.44
59289;BME280;45056;47.602;9.886;2023-02-11T04:22:57;94536.03;;;-2.02;56.67
59289;BME280;45056;47.602;9.886;2023-02-11T04:25:27;94536.84;;;-2.01;56.54
59289;BME280;45056;47.602;9.886;2023-02-11T04:27:55;94526.94;;;-2.01;56.63
59289;BME280;45056;47.602;9.886;2023-02-11T04:32:59;94522.38;;;-2.00;56.36
59289;BME280;45056;47.602;9.886;2023-02-11T04:35:27;94520.81;;;-2.01;56.35
59289;BME280;45056;47.602;9.886;2023-02-11T04:37:55;94517.81;;;-2.00;56.52
59289;BME280;45056;47.602;9.886;2023-02-11T04:40:23;94523.16;;;-2.00;56.66
59289;BME280;45056;47.602;9.886;2023-02-11T04:42:53;94520.94;;;-1.98;56.21
59289;BME280;45056;47.602;9.886;2023-02-11T04:45:21;94528.63;;;-1.96;56.11
59289;BME280;45056;47.602;9.886;2023-02-11T04:47:49;94529.88;;;-1.94;56.10
59289;BME280;45056;47.602;9.886;2023-02-11T04:50:17;94525.19;;;-1.97;56.39
59289;BME280;45056;47.602;9.886;2023-02-11T04:52:45;94526.28;;;-1.98;56.43
59289;BME280;45056;47.602;9.886;2023-02-11T04:55:13;94538.84;;;-1.98;56.17
59289;BME280;45056;47.602;9.886;2023-02-11T04:57:41;94539.63;;;-1.98;56.64
59289;BME280;45056;47.602;9.886;2023-02-11T05:00:12;94538.22;;;-1.95;56.24
59289;BME280;45056;47.602;9.886;2023-02-11T05:02:41;94545.41;;;-1.96;56.34
59289;BME280;45056;47.602;9.886;2023-02-11T05:05:09;94544.31;;;-1.95;56.39
59289;BME280;45056;47.602;9.886;2023-02-11T05:07:37;94548.09;;;-1.96;56.64
59289;BME280;45056;47.602;9.886;2023-02-11T05:10:05;94556.88;;;-1.95;56.42
59289;BME280;45056;47.602;9.886;2023-02-11T05:12:33;94550.75;;;-1.96;56.69
59289;BME280;45056;47.602;9.886;2023-02-11T05:15:01;94562.22;;;-1.95;56.95
59289;BME280;45056;47.602;9.886;2023-02-11T05:17:31;94566.75;;;-1.96;57.14
59289;BME280;45056;47.602;9.886;2023-02-11T05:19:59;94569.13;;;-1.94;56.89
59289;BME280;45056;47.602;9.886;2023-02-11T05:22:27;94562.22;;;-1.95;57.09
59289;BME280;45056;47.602;9.886;2023-02-11T05:24:55;94559.56;;;-1.95;57.02
59289;BME280;45056;47.602;9.886;2023-02-11T05:27:23;94572.88;;;-1.95;56.88
59289;BME280;45056;47.602;9.886;2023-02-11T05:29:51;94572.56;;;-1.94;57.02
59289;BME280;45056;47.602;9.886;2023-02-11T05:32:19;94578.34;;;-1.92;57.39
59289;BME280;45056;47.602;9.886;2023-02-11T05:34:48;94577.25;;;-1.91;57.37
59289;BME280;45056;47.602;9.886;2023-02-11T05:37:16;94570.81;;;-1.90;56.86
59289;BME280;45056;47.602;9.886;2023-02-11T05:39:44;94566.25;;;-1.89;56.87
59289;BME280;45056;47.602;9.886;2023-02-11T05:42:13;94577.69;;;-1.89;56.79
59289;BME280;45056;47.602;9.886;2023-02-11T05:44:41;94567.03;;;-1.89;56.70
59289;BME280;45056;47.602;9.886;2023-02-11T05:47:09;94557.16;;;-1.88;56.94
59289;BME280;45056;47.602;9.886;2023-02-11T05:49:37;94548.84;;;-1.86;56.74
59289;BME280;45056;47.602;9.886;2023-02-11T05:52:06;94540.50;;;-1.85;57.05
59289;BME280;45056;47.602;9.886;2023-02-11T05:54:35;94553.53;;;-1.83;56.60
59289;BME280;45056;47.602;9.886;2023-02-11T05:57:03;94551.97;;;-1.84;56.65
59289;BME280;45056;47.602;9.886;2023-02-11T05:59:31;94560.59;;;-1.88;56.11
59289;BME280;45056;47.602;9.886;2023-02-11T06:01:59;94554.53;;;-1.97;56.49
59289;BME280;45056;47.602;9.886;2023-02-11T06:04:27;94559.41;;;-1.99;56.96
59289;BME280;45056;47.602;9.886;2023-02-11T06:06:55;94554.84;;;-1.98;56.52
59289;BME280;45056;47.602;9.886;2023-02-11T06:09:25;94558.28;;;-1.98;56.70
59289;BME280;45056;47.602;9.886;2023-02-11T06:11:53;94559.84;;;-1.97;56.97
59289;BME280;45056;47.602;9.886;2023-02-11T06:14:21;94545.59;;;-2.01;56.80
59289;BME280;45056;47.602;9.886;2023-02-11T06:16:49;94539.34;;;-2.05;57.10
59289;BME280;45056;47.602;9.886;2023-02-11T06:19:17;94530.09;;;-2.08;57.29
59289;BME280;45056;47.602;9.886;2023-02-11T06:21:45;94528.22;;;-2.07;57.09
59289;BME280;45056;47.602;9.886;2023-02-11T06:24:13;94540.44;;;-2.06;57.14
59289;BME280;45056;47.602;9.886;2023-02-11T06:26:42;94537.13;;;-2.03;56.75
59289;BME280;45056;47.602;9.886;2023-02-11T06:29:11;94548.00;;;-2.08;56.89
59289;BME280;45056;47.602;9.886;2023-02-11T06:31:39;94555.84;;;-2.12;57.20
59289;BME280;45056;47.602;9.886;2023-02-11T06:34:08;94556.81;;;-2.16;57.38
59289;BME280;45056;47.602;9.886;2023-02-11T06:36:38;94562.47;;;-2.18;57.51
59289;BME280;45056;47.602;9.886;2023-02-11T06:39:07;94553.06;;;-2.15;57.69
59289;BME280;45056;47.602;9.886;2023-02-11T06:41:35;94557.41;;;-2.11;57.87
59289;BME280;45056;47.602;9.886;2023-02-11T06:44:05;94548.44;;;-2.06;58.09
59289;BME280;45056;47.602;9.886;2023-02-11T06:46:33;94537.59;;;-2.01;58.07
59289;BME280;45056;47.602;9.886;2023-02-11T06:49:02;94541.19;;;-1.97;57.80
59289;BME280;45056;47.602;9.886;2023-02-11T06:51:30;94529.22;;;-1.91;57.73
59289;BME280;45056;47.602;9.886;2023-02-11T06:53:58;94527.31;;;-1.81;57.66
59289;BME280;45056;47.602;9.886;2023-02-11T06:56:26;94523.78;;;-1.73;57.50
59289;BME280;45056;47.602;9.886;2023-02-11T06:58:55;94510.41;;;-1.64;57.65
59289;BME280;45056;47.602;9.886;2023-02-11T07:01:26;94505.00;;;-1.55;56.95
59289;BME280;45056;47.602;9.886;2023-02-11T07:03:55;94507.28;;;-1.45;56.63
59289;BME280;45056;47.602;9.886;2023-02-11T07:06:25;94505.97;;;-1.39;56.73
59289;BME280;45056;47.602;9.886;2023-02-11T07:08:54;94509.88;;;-1.36;56.95
59289;BME280;45056;47.602;9.886;2023-02-11T07:11:25;94496.66;;;-1.33;57.19
59289;BME280;45056;47.602;9.886;2023-02-11T07:13:58;94490.78;;;-1.26;56.60
59289;BME280;45056;47.602;9.886;2023-02-11T07:16:31;94491.16;;;-1.15;55.98
59289;BME280;45056;47.602;9.886;2023-02-11T07:18:59;94491.56;;;-1.04;54.47
59289;BME280;45056;47.602;9.886;2023-02-11T07:21:27;94494.59;;;-0.93;53.91
59289;BME280;45056;47.602;9.886;2023-02-11T07:23:56;94498.84;;;-0.80;53.57
59289;BME280;45056;47.602;9.886;2023-02-11T07:26:24;94506.44;;;-0.69;52.74
59289;BME280;45056;47.602;9.886;2023-02-11T07:28:52;94531.84;;;-0.63;53.39
59289;BME280;45056;47.602;9.886;2023-02-11T07:31:23;94550.38;;;-0.58;54.00
59289;BME280;45056;47.602;9.886;2023-02-11T07:33:57;94551.28;;;-0.54;54.11
59289;BME280;45056;47.602;9.886;2023-02-11T07:36:28;94545.72;;;-0.49;53.79
59289;BME280;45056;47.602;9.886;2023-02-11T07:38:59;94536.81;;;-0.40;53.91
59289;BME280;45056;47.602;9.886;2023-02-11T07:41:27;94544.31;;;-0.34;52.65
59289;BME280;45056;47.602;9.886;2023-02-11T07:43:55;94549.13;;;-0.27;52.50
59289;BME280;45056;47.602;9.886;2023-02-11T07:46:25;94553.91;;;-0.20;52.77
59289;BME280;45056;47.602;9.886;2023-02-11T07:48:55;94559.16;;;-0.11;53.18
59289;BME280;45056;47.602;9.886;2023-02-11T07:51:25;94562.06;;;-0.04;53.00
59289;BME280;45056;47.602;9.886;2023-02-11T07:53:58;94559.94;;;0.02;52.80
59289;BME280;45056;47.602;9.886;2023-02-11T07:56:27;94538.66;;;0.05;52.30
59289;BME280;45056;47.602;9.886;2023-02-11T07:59:00;94527.06;;;0.13;52.01
59289;BME280;45056;47.602;9.886;2023-02-11T08:01:30;94516.13;;;0.19;51.93
59289;BME280;45056;47.602;9.886;2023-02-11T08:04:01;94515.44;;;0.22;51.43
59289;BME280;45056;47.602;9.886;2023-02-11T08:06:33;94549.56;;;0.25;51.51
59289;BME280;45056;47.602;9.886;2023-02-11T08:09:04;94570.44;;;0.32;51.68
59289;BME280;45056;47.602;9.886;2023-02-11T08:11:35;94578.38;;;0.40;51.69
59289;BME280;45056;47.602;9.886;2023-02-11T08:14:03;94571.44;;;0.52;51.59
59289;BME280;45056;47.602;9.886;2023-02-11T08:16:34;94564.03;;;0.61;51.53
59289;BME280;45056;47.602;9.886;2023-02-11T08:19:06;94565.03;;;0.69;51.44
59289;BME280;45056;47.602;9.886;2023-02-11T08:21:38;94565.34;;;0.80;51.27
59289;BME280;45056;47.602;9.886;2023-02-11T08:24:07;94569.47;;;0.90;50.70
59289;BME280;45056;47.602;9.886;2023-02-11T08:26:36;94567.34;;;0.95;50.45
59289;BME280;45056;47.602;9.886;2023-02-11T08:29:08;94568.41;;;1.07;50.27
59289;BME280;45056;47.602;9.886;2023-02-11T08:31:40;94572.75;;;1.11;49.80
59289;BME280;45056;47.602;9.886;2023-02-11T08:34:11;94563.69;;;1.16;49.82
59289;BME280;45056;47.602;9.886;2023-02-11T08:36:41;94559.63;;;1.22;50.31
59289;BME280;45056;47.602;9.886;2023-02-11T08:39:13;94559.16;;;1.33;50.30
59289;BME280;45056;47.602;9.886;2023-02-11T08:41:43;94573.38;;;1.49;49.83
59289;BME280;45056;47.602;9.886;2023-02-11T08:44:11;94574.97;;;1.66;49.60
59289;BME280;45056;47.602;9.886;2023-02-11T08:46:39;94577.25;;;1.80;49.35
59289;BME280;45056;47.602;9.886;2023-02-11T08:49:07;94580.31;;;1.95;49.26
59289;BME280;45056;47.602;9.886;2023-02-11T08:51:37;94568.06;;;2.13;48.23
59289;BME280;45056;47.602;9.886;2023-02-11T08:54:05;94561.06;;;2.25;47.76
59289;BME280;45056;47.602;9.886;2023-02-11T08:56:36;94564.78;;;2.36;47.64
59289;BME280;45056;47.602;9.886;2023-02-11T08:59:05;94548.22;;;2.50;47.25
59289;BME280;45056;47.602;9.886;2023-02-11T09:01:34;94533.78;;;2.58;46.17
59289;BME280;45056;47.602;9.886;2023-02-11T09:04:03;94532.38;;;2.65;45.66
59289;BME280;45056;47.602;9.886;2023-02-11T09:06:31;94545.91;;;2.68;45.93
59289;BME280;45056;47.602;9.886;2023-02-11T09:09:01;94550.16;;;2.69;45.84
59289;BME280;45056;47.602;9.886;2023-02-11T09:11:32;94556.66;;;2.68;45.95
59289;BME280;45056;47.602;9.886;2023-02-11T09:14:02;94556.16;;;2.63;45.28
59289;BME280;45056;47.602;9.886;2023-02-11T09:16:33;94550.63;;;2.55;45.71
59289;BME280;45056;47.602;9.886;2023-02-11T09:19:04;94555.13;;;2.51;46.33
59289;BME280;45056;47.602;9.886;2023-02-11T09:21:32;94550.38;;;2.44;47.02
59289;BME280;45056;47.602;9.886;2023-02-11T09:24:02;94547.97;;;2.39;47.47
59289;BME280;45056;47.602;9.886;2023-02-11T09:26:33;94548.75;;;2.40;47.44
59289;BME280;45056;47.602;9.886;2023-02-11T09:29:03;94556.88;;;2.43;46.90
59289;BME280;45056;47.602;9.886;2023-02-11T09:31:33;94554.38;;;2.51;46.91
59289;BME280;45056;47.602;9.886;2023-02-11T09:34:04;94559.91;;;2.58;46.73
59289;BME280;45056;47.602;9.886;2023-02-11T09:36:35;94562.03;;;2.68;46.46
59289;BME280;45056;47.602;9.886;2023-02-11T09:39:09;94561.91;;;2.81;46.16
59289;BME280;45056;47.602;9.886;2023-02-11T09:42:09;94567.25;;;2.97;45.14
59289;BME280;45056;47.602;9.886;2023-02-11T09:44:57;94575.53;;;3.08;43.46
59289;BME280;45056;47.602;9.886;2023-02-11T09:47:32;94578.81;;;3.17;41.99
59289;BME280;45056;47.602;9.886;2023-02-11T09:50:06;94572.00;;;3.23;42.18
59289;BME280;45056;47.602;9.886;2023-02-11T09:52:46;94553.72;;;3.32;42.96
59289;BME280;45056;47.602;9.886;2023-02-11T09:55:25;94558.53;;;3.43;41.71
59289;BME280;45056;47.602;9.886;2023-02-11T09:57:56;94556.03;;;3.54;41.64
59289;BME280;45056;47.602;9.886;2023-02-11T10:00:31;94551.28;;;3.67;40.93
59289;BME280;45056;47.602;9.886;2023-02-11T10:06:26;94556.16;;;4.04;40.17
59289;BME280;45056;47.602;9.886;2023-02-11T10:09:20;94555.59;;;4.18;40.72
59289;BME280;45056;47.602;9.886;2023-02-11T10:12:11;94553.09;;;4.29;40.49
59289;BME280;45056;47.602;9.886;2023-02-11T10:15:14;94557.00;;;4.31;40.31
59289;BME280;45056;47.602;9.886;2023-02-11T10:18:07;94556.56;;;4.29;41.43
59289;BME280;45056;47.602;9.886;2023-02-11T10:21:04;94556.50;;;4.26;42.42
59289;BME280;45056;47.602;9.886;2023-02-11T10:23:47;94557.75;;;4.32;43.36
59289;BME280;45056;47.602;9.886;2023-02-11T10:26:21;94559.56;;;4.51;42.02
59289;BME280;45056;47.602;9.886;2023-02-11T10:28:55;94557.94;;;4.70;40.91
59289;BME280;45056;47.602;9.886;2023-02-11T10:31:36;94546.25;;;4.89;39.90
59289;BME280;45056;47.602;9.886;2023-02-11T10:34:10;94536.81;;;5.02;38.50
59289;BME280;45056;47.602;9.886;2023-02-11T10:36:42;94536.88;;;5.10;37.91
59289;BME280;45056;47.602;9.886;2023-02-11T10:39:14;94534.25;;;5.17;37.16
59289;BME280;45056;47.602;9.886;2023-02-11T10:41:46;94532.38;;;5.21;36.92
59289;BME280;45056;47.602;9.886;2023-02-11T10:44:24;94532.38;;;5.21;36.28
59289;BME280;45056;47.602;9.886;2023-02-11T10:47:00;94530.41;;;5.18;36.56
59289;BME280;45056;47.602;9.886;2023-02-11T10:49:37;94525.03;;;5.18;37.84
59289;BME280;45056;47.602;9.886;2023-02-11T10:52:13;94506.94;;;5.22;38.37
59289;BME280;45056;47.602;9.886;2023-02-11T10:54:57;94505.06;;;5.26;38.97
59289;BME280;45056;47.602;9.886;2023-02-11T10:57:34;94502.47;;;5.33;39.37
59289;BME280;45056;47.602;9.886;2023-02-11T11:00:22;94506.03;;;5.45;38.49
59289;BME280;45056;47.602;9.886;2023-02-11T11:02:58;94507.66;;;5.53;38.15
59289;BME280;45056;47.602;9.886;2023-02-11T11:05:32;94496.94;;;5.60;38.22
59289;BME280;45056;47.602;9.886;2023-02-11T11:08:05;94492.38;;;5.68;38.67
59289;BME280;45056;47.602;9.886;2023-02-11T11:10:38;94490.16;;;5.77;39.44
59289;BME280;45056;47.602;9.886;2023-02-11T11:13:28;94484.84;;;5.88;37.97
59289;BME280;45056;47.602;9.886;2023-02-11T11:16:17;94481.81;;;5.94;37.30
59289;BME280;45056;47.602;9.886;2023-02-11T11:18:48;94473.38;;;5.99;37.62
59289;BME280;45056;47.602;9.886;2023-02-11T11:21:23;94478.84;;;6.06;36.81
59289;BME280;45056;47.602;9.886;2023-02-11T11:23:56;94490.50;;;6.14;37.69
59289;BME280;45056;47.602;9.886;2023-02-11T11:26:37;94504.09;;;6.28;38.09
59289;BME280;45056;47.602;9.886;2023-02-11T11:29:13;94498.38;;;6.37;37.17
59289;BME280;45056;47.602;9.886;2023-02-11T11:31:50;94505.81;;;6.51;37.99
59289;BME280;45056;47.602;9.886;2023-02-11T11:34:26;94508.22;;;6.67;37.51
59289;BME280;45056;47.602;9.886;2023-02-11T11:37:08;94507.16;;;6.86;36.89
59289;BME280;45056;47.602;9.886;2023-02-11T11:39:38;94499.91;;;7.08;37.83
59289;BME280;45056;47.602;9.886;2023-02-11T11:42:24;94500.38;;;7.25;35.98
59289;BME280;45056;47.602;9.886;2023-02-11T11:44:59;94499.63;;;7.35;35.78
59289;BME280;45056;47.602;9.886;2023-02-11T11:47:36;94503.50;;;7.42;35.17
59289;BME280;45056;47.602;9.886;2023-02-11T11:50:25;94498.88;;;7.39;35.13
59289;BME280;45056;47.602;9.886;2023-02-11T11:53:00;94501.19;;;7.36;35.38
59289;BME280;45056;47.602;9.886;2023-02-11T11:55:38;94506.56;;;7.33;37.54
59289;BME280;45056;47.602;9.886;2023-02-11T11:58:15;94499.59;;;7.25;40.08
59289;BME280;45056;47.602;9.886;2023-02-11T12:00:54;94508.06;;;7.16;41.33
59289;BME280;45056;47.602;9.886;2023-02-11T12:07:07;94489.81;;;6.91;42.29
59289;BME280;45056;47.602;9.886;2023-02-11T12:10:01;94494.81;;;6.89;42.32
59289;BME280;45056;47.602;9.886;2023-02-11T12:12:52;94493.66;;;6.90;42.59
59289;BME280;45056;47.602;9.886;2023-02-11T12:15:34;94488.66;;;6.96;43.34
59289;BME280;45056;47.602;9.886;2023-02-11T12:18:25;94478.63;;;6.96;43.55
59289;BME280;45056;47.602;9.886;2023-02-11T12:21:23;94491.78;;;7.01;43.55
59289;BME280;45056;47.602;9.886;2023-02-11T12:24:22;94480.94;;;7.01;43.34
59289;BME280;45056;47.602;9.886;2023-02-11T12:27:07;94484.41;;;6.98;43.18
59289;BME280;45056;47.602;9.886;2023-02-11T12:29:54;94486.34;;;6.94;43.05
59289;BME280;45056;47.602;9.886;2023-02-11T12:32:39;94494.06;;;6.92;42.70
59289;BME280;45056;47.602;9.886;2023-02-11T12:35:33;94487.84;;;6.91;42.92
59289;BME280;45056;47.602;9.886;2023-02-11T12:38:28;94490.16;;;6.89;42.39
59289;BME280;45056;47.602;9.886;2023-02-11T12:41:18;94484.00;;;6.92;42.16
59289;BME280;45056;47.602;9.886;2023-02-11T12:44:28;94481.28;;;6.92;42.05
59289;BME280;45056;47.602;9.886;2023-02-11T12:47:26;94484.00;;;6.89;41.75
59289;BME280;45056;47.602;9.886;2023-02-11T12:50:16;94487.03;;;6.84;41.42
59289;BME280;45056;47.602;9.886;2023-02-11T12:53:10;94483.16;;;6.77;41.10
59289;BME280;45056;47.602;9.886;2023-02-11T12:55:55;94483.88;;;6.71;41.51
59289;BME280;45056;47.602;9.886;2023-02-11T12:58:32;94485.44;;;6.68;41.72
59289;BME280;45056;47.602;9.886;2023-02-11T13:01:11;94490.06;;;6.68;42.06
59289;BME280;45056;47.602;9.886;2023-02-11T13:03:50;94480.81;;;6.72;42.47
59289;BME280;45056;47.602;9.886;2023-02-11T13:06:30;94482.75;;;6.75;42.44
59289;BME280;45056;47.602;9.886;2023-02-11T13:09:10;94466.53;;;6.75;42.65
59289;BME280;45056;47.602;9.886;2023-02-11T13:11:50;94470.03;;;6.79;42.57
59289;BME280;45056;47.602;9.886;2023-02-11T13:14:28;94457.69;;;6.89;40.91
59289;BME280;45056;47.602;9.886;2023-02-11T13:17:08;94464.34;;;7.03;40.60
59289;BME280;45056;47.602;9.886;2023-02-11T13:19:53;94464.03;;;7.26;40.02
59289;BME280;45056;47.602;9.886;2023-02-11T13:22:31;94455.97;;;7.55;39.59
59289;BME280;45056;47.602;9.886;2023-02-11T13:25:21;94450.19;;;7.89;38.65
59289;BME280;45056;47.602;9.886;2023-02-11T13:28:04;94443.19;;;8.10;35.25
59289;BME280;45056;47.602;9.886;2023-02-11T13:30:47;94448.63;;;8.21;36.49
59289;BME280;45056;47.602;9.886;2023-02-11T13:33:33;94446.69;;;8.29;35.80
59289;BME280;45056;47.602;9.886;2023-02-11T13:36:23;94450.13;;;8.40;36.07
59289;BME280;45056;47.602;9.886;2023-02-11T13:39:02;94445.91;;;8.54;36.30
59289;BME280;45056;47.602;9.886;2023-02-11T13:41:40;94452.44;;;8.67;36.07
59289;BME280;45056;47.602;9.886;2023-02-11T13:44:23;94441.56;;;8.82;36.33
59289;BME280;45056;47.602;9.886;2023-02-11T13:46:56;94438.41;;;8.98;36.67
59289;BME280;45056;47.602;9.886;2023-02-11T13:49:34;94432.53;;;9.10;35.53
59289;BME280;45056;47.602;9.886;2023-02-11T13:52:22;94435.22;;;9.14;34.63
59289;BME280;45056;47.602;9.886;2023-02-11T13:54:55;94427.41;;;9.19;34.31